Terminal Aerodrome Forecast
Issued by NWS

Home | Current Version | Previous Version | Text Only | Print | Product List | Glossary On
Versions: 1 2 3 4 5 6 7 8 9 10 11 12 13 14 15 16
000
FTUS44 KLZK 292149 AAA
TAFHOT
TAF AMD
KHOT 292149Z 2922/3018 13009G18KT P6SM -TSRA BKN008CB OVC025
      TEMPO 2922/3001 2SM TSRA BR OVC008CB
     FM300100 11009KT P6SM -TSRA BKN008CB OVC025
     FM300300 12009KT 4SM TSRA BR OVC007CB
     FM301200 15005KT 1SM TSRA BR OVC005CB
     FM301500 19010KT P6SM VCSH OVC015=

USA.gov is the U.S. government's official web portal to all federal, state and local government web resources and services.